sensor_id;sensor_type;location;lat;lon;timestamp;pressure;altitude;pressure_sealevel;temperature;humidity
21086;BME280;34247;50.064;19.970;2022-12-10T00:00:18;97883.97;;;3.57;100.00
21086;BME280;34247;50.064;19.970;2022-12-10T00:01:43;97874.41;;;3.56;100.00
21086;BME280;34247;50.064;19.970;2022-12-10T00:02:54;97879.00;;;3.53;100.00
21086;BME280;34247;50.064;19.970;2022-12-10T00:04:15;97874.31;;;3.44;100.00
21086;BME280;34247;50.064;19.970;2022-12-10T00:05:22;97887.34;;;3.45;100.00
21086;BME280;34247;50.064;19.970;2022-12-10T00:06:36;97888.84;;;3.49;100.00
21086;BME280;34247;50.064;19.970;2022-12-10T00:07:43;97902.69;;;3.51;100.00
21086;BME280;34247;50.064;19.970;2022-12-10T00:08:48;97897.47;;;3.51;100.00
21086;BME280;34247;50.064;19.970;2022-12-10T00:09:54;97899.13;;;3.52;100.00
21086;BME280;34247;50.064;19.970;2022-12-10T00:11:04;97891.38;;;3.51;100.00
21086;BME280;34247;50.064;19.970;2022-12-10T00:12:18;97898.19;;;3.53;100.00
21086;BME280;34247;50.064;19.970;2022-12-10T00:13:23;97897.25;;;3.54;100.00
21086;BME280;34247;50.064;19.970;2022-12-10T00:14:26;97899.13;;;3.52;100.00
21086;BME280;34247;50.064;19.970;2022-12-10T00:15:30;97899.13;;;3.52;100.00
21086;BME280;34247;50.064;19.970;2022-12-10T00:16:35;97906.00;;;3.55;100.00
21086;BME280;34247;50.064;19.970;2022-12-10T00:17:42;97903.28;;;3.56;100.00
21086;BME280;34247;50.064;19.970;2022-12-10T00:18:46;97898.03;;;3.56;100.00
21086;BME280;34247;50.064;19.970;2022-12-10T00:19:50;97901.50;;;3.57;100.00
21086;BME280;34247;50.064;19.970;2022-12-10T00:20:54;97900.56;;;3.58;100.00
21086;BME280;34247;50.064;19.970;2022-12-10T00:21:57;97896.88;;;3.60;100.00
21086;BME280;34247;50.064;19.970;2022-12-10T00:23:01;97901.38;;;3.58;100.00
21086;BME280;34247;50.064;19.970;2022-12-10T00:24:20;97899.72;;;3.57;100.00
21086;BME280;34247;50.064;19.970;2022-12-10T00:25:24;97905.91;;;3.56;100.00
21086;BME280;34247;50.064;19.970;2022-12-10T00:26:31;97901.38;;;3.58;100.00
21086;BME280;34247;50.064;19.970;2022-12-10T00:27:35;97901.50;;;3.57;100.00
21086;BME280;34247;50.064;19.970;2022-12-10T00:28:43;97893.63;;;3.57;100.00
21086;BME280;34247;50.064;19.970;2022-12-10T00:29:47;97896.03;;;3.60;100.00
21086;BME280;34247;50.064;19.970;2022-12-10T00:30:50;97901.50;;;3.57;100.00
21086;BME280;34247;50.064;19.970;2022-12-10T00:31:54;97899.59;;;3.59;100.00
21086;BME280;34247;50.064;19.970;2022-12-10T00:32:58;97898.75;;;3.58;100.00
21086;BME280;34247;50.064;19.970;2022-12-10T00:34:05;97904.75;;;3.60;100.00
21086;BME280;34247;50.064;19.970;2022-12-10T00:35:09;97902.34;;;3.57;100.00
21086;BME280;34247;50.064;19.970;2022-12-10T00:36:23;97903.28;;;3.56;100.00
21086;BME280;34247;50.064;19.970;2022-12-10T00:37:42;97904.22;;;3.55;100.00
21086;BME280;34247;50.064;19.970;2022-12-10T00:38:49;97906.84;;;3.55;100.00
21086;BME280;34247;50.064;19.970;2022-12-10T00:39:58;97909.25;;;3.58;100.00
21086;BME280;34247;50.064;19.970;2022-12-10T00:41:07;97904.97;;;3.57;100.00
21086;BME280;34247;50.064;19.970;2022-12-10T00:42:14;97911.16;;;3.56;100.00
21086;BME280;34247;50.064;19.970;2022-12-10T00:43:22;97905.91;;;3.56;100.00
21086;BME280;34247;50.064;19.970;2022-12-10T00:44:27;97911.16;;;3.56;100.00
21086;BME280;34247;50.064;19.970;2022-12-10T00:45:33;97910.19;;;3.57;100.00
21086;BME280;34247;50.064;19.970;2022-12-10T00:46:46;97907.69;;;3.56;100.00
21086;BME280;34247;50.064;19.970;2022-12-10T00:47:54;97912.00;;;3.57;100.00
21086;BME280;34247;50.064;19.970;2022-12-10T00:48:59;97914.72;;;3.55;100.00
21086;BME280;34247;50.064;19.970;2022-12-10T00:50:07;97904.00;;;3.58;100.00
21086;BME280;34247;50.064;19.970;2022-12-10T00:51:25;97909.25;;;3.58;100.00
21086;BME280;34247;50.064;19.970;2022-12-10T00:52:36;97907.75;;;3.54;100.00
21086;BME280;34247;50.064;19.970;2022-12-10T00:53:51;97905.44;;;3.50;100.00
21086;BME280;34247;50.064;19.970;2022-12-10T00:55:00;97900.44;;;3.45;100.00
21086;BME280;34247;50.064;19.970;2022-12-10T00:56:06;97909.84;;;3.49;100.00
21086;BME280;34247;50.064;19.970;2022-12-10T00:57:11;97902.22;;;3.45;100.00
21086;BME280;34247;50.064;19.970;2022-12-10T00:58:32;97908.22;;;3.47;100.00
21086;BME280;34247;50.064;19.970;2022-12-10T00:59:41;97909.94;;;3.48;100.00
21086;BME280;34247;50.064;19.970;2022-12-10T01:00:51;97916.03;;;3.48;100.00
21086;BME280;34247;50.064;19.970;2022-12-10T01:02:02;97911.69;;;3.47;100.00
21086;BME280;34247;50.064;19.970;2022-12-10T01:03:14;97914.97;;;3.51;100.00
21086;BME280;34247;50.064;19.970;2022-12-10T01:04:19;97911.41;;;3.52;100.00
21086;BME280;34247;50.064;19.970;2022-12-10T01:05:31;97914.13;;;3.50;100.00
21086;BME280;34247;50.064;19.970;2022-12-10T01:06:50;97914.25;;;3.49;100.00
21086;BME280;34247;50.064;19.970;2022-12-10T01:07:59;97910.69;;;3.50;100.00
21086;BME280;34247;50.064;19.970;2022-12-10T01:09:08;97918.44;;;3.51;100.00
21086;BME280;34247;50.064;19.970;2022-12-10T01:10:12;97911.31;;;3.53;100.00
21086;BME280;34247;50.064;19.970;2022-12-10T01:11:35;97919.97;;;3.55;100.00
21086;BME280;34247;50.064;19.970;2022-12-10T01:12:41;97914.72;;;3.55;100.00
21086;BME280;34247;50.064;19.970;2022-12-10T01:13:52;97911.16;;;3.56;100.00
21086;BME280;34247;50.064;19.970;2022-12-10T01:15:04;97912.94;;;3.56;100.00
21086;BME280;34247;50.064;19.970;2022-12-10T01:16:18;97911.03;;;3.58;100.00
21086;BME280;34247;50.064;19.970;2022-12-10T01:17:23;97912.00;;;3.57;100.00
21086;BME280;34247;50.064;19.970;2022-12-10T01:18:27;97913.47;;;3.61;100.00
21086;BME280;34247;50.064;19.970;2022-12-10T01:19:35;97916.19;;;3.59;100.00
21086;BME280;34247;50.064;19.970;2022-12-10T01:20:41;97912.81;;;3.57;100.00
21086;BME280;34247;50.064;19.970;2022-12-10T01:21:57;97909.25;;;3.58;100.00
21086;BME280;34247;50.064;19.970;2022-12-10T01:23:01;97916.03;;;3.63;100.00
21086;BME280;34247;50.064;19.970;2022-12-10T01:24:05;97912.53;;;3.62;100.00
21086;BME280;34247;50.064;19.970;2022-12-10T01:25:23;97913.47;;;3.61;100.00
21086;BME280;34247;50.064;19.970;2022-12-10T01:26:33;97927.06;;;3.68;100.00
21086;BME280;34247;50.064;19.970;2022-12-10T01:27:44;97909.53;;;3.68;100.00
21086;BME280;34247;50.064;19.970;2022-12-10T01:28:58;97916.38;;;3.71;100.00
21086;BME280;34247;50.064;19.970;2022-12-10T01:30:49;97923.22;;;3.73;100.00
21086;BME280;34247;50.064;19.970;2022-12-10T01:32:16;97921.63;;;3.71;100.00
21086;BME280;34247;50.064;19.970;2022-12-10T01:33:36;97935.28;;;3.76;100.00
21086;BME280;34247;50.064;19.970;2022-12-10T01:34:51;97934.38;;;3.77;100.00
21086;BME280;34247;50.064;19.970;2022-12-10T01:36:22;97935.97;;;3.79;100.00
21086;BME280;34247;50.064;19.970;2022-12-10T01:37:29;97936.06;;;3.78;100.00
21086;BME280;34247;50.064;19.970;2022-12-10T01:38:40;97941.31;;;3.78;100.00
21086;BME280;34247;50.064;19.970;2022-12-10T01:39:48;97938.47;;;3.81;100.00
21086;BME280;34247;50.064;19.970;2022-12-10T01:40:52;97947.19;;;3.81;99.95
21086;BME280;34247;50.064;19.970;2022-12-10T01:42:00;97940.06;;;3.83;100.00
21086;BME280;34247;50.064;19.970;2022-12-10T01:43:16;97931.28;;;3.84;99.88
21086;BME280;34247;50.064;19.970;2022-12-10T01:45:51;97928.72;;;3.83;99.92
21086;BME280;34247;50.064;19.970;2022-12-10T01:47:12;97930.59;;;3.81;99.30
21086;BME280;34247;50.064;19.970;2022-12-10T01:48:32;97927.97;;;3.81;99.77
21086;BME280;34247;50.064;19.970;2022-12-10T01:50:00;97933.13;;;3.82;99.98
21086;BME280;34247;50.064;19.970;2022-12-10T01:51:16;97933.06;;;3.84;99.73
21086;BME280;34247;50.064;19.970;2022-12-10T01:52:26;97935.69;;;3.84;99.64
21086;BME280;34247;50.064;19.970;2022-12-10T01:53:34;97935.59;;;3.85;100.00
21086;BME280;34247;50.064;19.970;2022-12-10T01:54:46;97942.41;;;3.88;99.79
21086;BME280;34247;50.064;19.970;2022-12-10T01:55:58;97936.22;;;3.89;99.53
21086;BME280;34247;50.064;19.970;2022-12-10T01:57:18;97938.66;;;3.92;99.73
21086;BME280;34247;50.064;19.970;2022-12-10T01:58:25;97938.66;;;3.92;99.45
21086;BME280;34247;50.064;19.970;2022-12-10T01:59:33;97941.56;;;3.87;99.36
21086;BME280;34247;50.064;19.970;2022-12-10T02:01:06;97945.78;;;3.90;99.50
21086;BME280;34247;50.064;19.970;2022-12-10T02:02:56;97941.38;;;3.91;99.49
21086;BME280;34247;50.064;19.970;2022-12-10T02:04:32;97941.38;;;3.91;99.68
21086;BME280;34247;50.064;19.970;2022-12-10T02:05:58;97940.53;;;3.90;99.83
21086;BME280;34247;50.064;19.970;2022-12-10T02:12:28;97942.22;;;3.91;99.99
21086;BME280;34247;50.064;19.970;2022-12-10T02:13:45;97945.59;;;3.93;100.00
21086;BME280;34247;50.064;19.970;2022-12-10T02:16:25;97947.28;;;3.94;99.72
21086;BME280;34247;50.064;19.970;2022-12-10T02:17:46;97947.91;;;3.98;100.00
21086;BME280;34247;50.064;19.970;2022-12-10T02:20:57;97945.41;;;3.96;99.80
21086;BME280;34247;50.064;19.970;2022-12-10T02:22:09;97943.59;;;3.97;99.37
21086;BME280;34247;50.064;19.970;2022-12-10T02:23:33;97945.41;;;3.96;99.81
21086;BME280;34247;50.064;19.970;2022-12-10T02:24:58;97945.28;;;3.98;99.87
21086;BME280;34247;50.064;19.970;2022-12-10T02:28:22;97938.25;;;3.98;99.29
21086;BME280;34247;50.064;19.970;2022-12-10T02:29:34;97941.00;;;3.97;99.85
21086;BME280;34247;50.064;19.970;2022-12-10T02:30:43;97937.34;;;3.99;99.80
21086;BME280;34247;50.064;19.970;2022-12-10T02:32:09;97940.72;;;4.01;99.96
21086;BME280;34247;50.064;19.970;2022-12-10T02:33:25;97939.31;;;3.96;99.63
21086;BME280;34247;50.064;19.970;2022-12-10T02:34:55;97933.88;;;3.99;99.53
21086;BME280;34247;50.064;19.970;2022-12-10T02:36:06;97940.81;;;4.00;100.00
21086;BME280;34247;50.064;19.970;2022-12-10T02:37:37;97941.66;;;4.00;99.66
21086;BME280;34247;50.064;19.970;2022-12-10T02:39:00;97948.47;;;4.03;99.52
21086;BME280;34247;50.064;19.970;2022-12-10T02:40:12;97952.88;;;4.02;99.48
21086;BME280;34247;50.064;19.970;2022-12-10T02:41:35;97956.56;;;4.00;99.02
21086;BME280;34247;50.064;19.970;2022-12-10T02:42:52;97960.03;;;4.00;99.48
21086;BME280;34247;50.064;19.970;2022-12-10T02:44:16;97959.94;;;4.02;99.28
21086;BME280;34247;50.064;19.970;2022-12-10T02:45:29;97959.94;;;4.02;99.17
21086;BME280;34247;50.064;19.970;2022-12-10T02:46:41;97967.69;;;4.03;99.43
21086;BME280;34247;50.064;19.970;2022-12-10T02:47:57;97968.53;;;4.04;99.21
21086;BME280;34247;50.064;19.970;2022-12-10T02:49:11;97979.16;;;4.02;99.23
21086;BME280;34247;50.064;19.970;2022-12-10T02:50:22;97972.94;;;4.03;99.39
21086;BME280;34247;50.064;19.970;2022-12-10T02:51:31;97965.06;;;4.03;99.46
21086;BME280;34247;50.064;19.970;2022-12-10T02:52:41;97968.28;;;3.94;99.42
21086;BME280;34247;50.064;19.970;2022-12-10T02:53:47;97965.56;;;3.96;99.47
21086;BME280;34247;50.064;19.970;2022-12-10T02:55:07;97976.38;;;3.91;99.78
21086;BME280;34247;50.064;19.970;2022-12-10T02:56:45;97973.34;;;3.97;99.33
21086;BME280;34247;50.064;19.970;2022-12-10T02:58:36;97974.09;;;3.99;99.63
21086;BME280;34247;50.064;19.970;2022-12-10T03:03:02;97970.44;;;4.02;99.83
21086;BME280;34247;50.064;19.970;2022-12-10T03:04:23;97968.53;;;4.04;99.55
21086;BME280;34247;50.064;19.970;2022-12-10T03:07:17;97971.16;;;4.04;99.50
21086;BME280;34247;50.064;19.970;2022-12-10T03:09:00;97970.22;;;4.05;99.44
21086;BME280;34247;50.064;19.970;2022-12-10T03:10:31;97972.94;;;4.03;99.42
21086;BME280;34247;50.064;19.970;2022-12-10T03:12:02;97970.16;;;4.06;99.68
21086;BME280;34247;50.064;19.970;2022-12-10T03:13:17;97967.53;;;4.06;99.35
21086;BME280;34247;50.064;19.970;2022-12-10T03:14:29;97972.78;;;4.06;99.48
21086;BME280;34247;50.064;19.970;2022-12-10T03:15:46;97973.63;;;4.07;99.24
21086;BME280;34247;50.064;19.970;2022-12-10T03:16:58;97966.97;;;4.01;99.18
21086;BME280;34247;50.064;19.970;2022-12-10T03:18:04;97969.03;;;3.96;99.29
21086;BME280;34247;50.064;19.970;2022-12-10T03:19:19;97971.84;;;3.93;99.44
21086;BME280;34247;50.064;19.970;2022-12-10T03:20:26;97968.28;;;3.94;99.42
21086;BME280;34247;50.064;19.970;2022-12-10T03:21:32;97970.53;;;3.86;99.59
21086;BME280;34247;50.064;19.970;2022-12-10T03:22:43;97966.69;;;3.92;99.82
21086;BME280;34247;50.064;19.970;2022-12-10T03:23:49;97970.72;;;3.97;99.93
21086;BME280;34247;50.064;19.970;2022-12-10T03:24:53;97975.88;;;3.99;99.80
21086;BME280;34247;50.064;19.970;2022-12-10T03:25:58;97968.91;;;3.98;99.58
21086;BME280;34247;50.064;19.970;2022-12-10T03:27:04;97978.41;;;4.00;99.32
21086;BME280;34247;50.064;19.970;2022-12-10T03:28:10;97976.53;;;4.02;99.18
21086;BME280;34247;50.064;19.970;2022-12-10T03:29:49;97980.66;;;4.06;99.30
21086;BME280;34247;50.064;19.970;2022-12-10T03:30:56;97978.03;;;4.06;99.31
21086;BME280;34247;50.064;19.970;2022-12-10T03:32:05;97971.72;;;4.09;99.15
21086;BME280;34247;50.064;19.970;2022-12-10T03:33:09;97972.69;;;4.08;99.12
21086;BME280;34247;50.064;19.970;2022-12-10T03:34:14;97975.94;;;4.11;99.08
21086;BME280;34247;50.064;19.970;2022-12-10T03:35:22;97973.31;;;4.11;98.81
21086;BME280;34247;50.064;19.970;2022-12-10T03:36:28;97977.81;;;4.09;98.43
21086;BME280;34247;50.064;19.970;2022-12-10T03:37:34;97986.44;;;4.11;98.68
21086;BME280;34247;50.064;19.970;2022-12-10T03:38:38;97982.03;;;4.12;98.56
21086;BME280;34247;50.064;19.970;2022-12-10T03:39:43;97982.25;;;4.09;98.44
21086;BME280;34247;50.064;19.970;2022-12-10T03:40:46;97993.38;;;4.12;98.79
21086;BME280;34247;50.064;19.970;2022-12-10T03:41:50;97983.81;;;4.11;98.77
21086;BME280;34247;50.064;19.970;2022-12-10T03:42:53;97984.59;;;4.13;98.70
21086;BME280;34247;50.064;19.970;2022-12-10T03:43:59;97985.50;;;4.12;98.46
21086;BME280;34247;50.064;19.970;2022-12-10T03:45:04;97977.53;;;4.14;98.65
21086;BME280;34247;50.064;19.970;2022-12-10T03:46:08;97975.00;;;4.12;98.54
21086;BME280;34247;50.064;19.970;2022-12-10T03:47:14;97979.50;;;4.10;98.71
21086;BME280;34247;50.064;19.970;2022-12-10T03:48:18;97978.50;;;4.13;98.75
21086;BME280;34247;50.064;19.970;2022-12-10T03:49:21;97987.22;;;4.13;98.63
21086;BME280;34247;50.064;19.970;2022-12-10T03:50:25;97973.25;;;4.13;98.69
21086;BME280;34247;50.064;19.970;2022-12-10T03:51:29;97982.03;;;4.12;98.94
21086;BME280;34247;50.064;19.970;2022-12-10T03:52:32;97982.88;;;4.12;98.80
21086;BME280;34247;50.064;19.970;2022-12-10T03:53:38;97989.38;;;4.07;98.32
21086;BME280;34247;50.064;19.970;2022-12-10T03:54:43;97990.13;;;4.09;98.73
21086;BME280;34247;50.064;19.970;2022-12-10T03:55:46;97986.44;;;4.11;98.65
21086;BME280;34247;50.064;19.970;2022-12-10T03:56:50;97984.59;;;4.13;98.63
21086;BME280;34247;50.064;19.970;2022-12-10T03:57:56;97986.16;;;4.16;98.71
21086;BME280;34247;50.064;19.970;2022-12-10T03:58:59;97990.56;;;4.15;98.90
21086;BME280;34247;50.064;19.970;2022-12-10T04:00:06;97994.44;;;4.10;98.53
21086;BME280;34247;50.064;19.970;2022-12-10T04:01:11;97998.94;;;4.08;98.88
21086;BME280;34247;50.064;19.970;2022-12-10T04:02:15;97998.72;;;4.11;99.05
21086;BME280;34247;50.064;19.970;2022-12-10T04:03:19;98009.06;;;4.14;98.85
21086;BME280;34247;50.064;19.970;2022-12-10T04:04:22;98005.78;;;4.10;98.78
21086;BME280;34247;50.064;19.970;2022-12-10T04:05:26;98011.69;;;4.14;98.88
21086;BME280;34247;50.064;19.970;2022-12-10T04:06:29;98006.34;;;4.15;99.00
21086;BME280;34247;50.064;19.970;2022-12-10T04:07:34;98007.06;;;4.18;98.92
21086;BME280;34247;50.064;19.970;2022-12-10T04:08:37;98007.91;;;4.18;98.76
21086;BME280;34247;50.064;19.970;2022-12-10T04:09:41;98011.31;;;4.20;98.75
21086;BME280;34247;50.064;19.970;2022-12-10T04:10:44;98014.94;;;4.18;98.49
21086;BME280;34247;50.064;19.970;2022-12-10T04:11:48;98020.19;;;4.18;98.33
21086;BME280;34247;50.064;19.970;2022-12-10T04:12:51;98019.19;;;4.20;98.53
21086;BME280;34247;50.064;19.970;2022-12-10T04:14:16;98035.03;;;4.19;98.39
21086;BME280;34247;50.064;19.970;2022-12-10T04:15:39;98034.38;;;4.15;98.98
21086;BME280;34247;50.064;19.970;2022-12-10T04:17:06;98045.53;;;4.19;98.80
21086;BME280;34247;50.064;19.970;2022-12-10T04:18:10;98031.56;;;4.18;98.87
21086;BME280;34247;50.064;19.970;2022-12-10T04:19:16;98034.06;;;4.20;98.68
21086;BME280;34247;50.064;19.970;2022-12-10T04:20:21;98035.69;;;4.22;98.74
21086;BME280;34247;50.064;19.970;2022-12-10T04:21:45;98035.84;;;4.19;98.68
21086;BME280;34247;50.064;19.970;2022-12-10T04:23:13;98036.81;;;4.18;98.84
21086;BME280;34247;50.064;19.970;2022-12-10T04:24:36;98045.47;;;4.20;98.78
21086;BME280;34247;50.064;19.970;2022-12-10T04:26:04;98046.28;;;4.21;98.74
21086;BME280;34247;50.064;19.970;2022-12-10T04:27:30;98056.81;;;4.21;98.58
21086;BME280;34247;50.064;19.970;2022-12-10T04:28:34;98062.91;;;4.21;98.46
21086;BME280;34247;50.064;19.970;2022-12-10T04:29:40;98057.91;;;4.02;98.96
21086;BME280;34247;50.064;19.970;2022-12-10T04:30:44;98055.50;;;3.99;99.89
21086;BME280;34247;50.064;19.970;2022-12-10T04:31:48;98046.00;;;3.97;100.00
21086;BME280;34247;50.064;19.970;2022-12-10T04:32:52;98048.25;;;4.03;99.92
21086;BME280;34247;50.064;19.970;2022-12-10T04:33:55;98046.19;;;4.08;99.89
21086;BME280;34247;50.064;19.970;2022-12-10T04:34:59;98036.91;;;4.02;99.78
21086;BME280;34247;50.064;19.970;2022-12-10T04:36:03;98035.81;;;4.06;99.92
21086;BME280;34247;50.064;19.970;2022-12-10T04:37:07;98032.34;;;4.06;99.93
21086;BME280;34247;50.064;19.970;2022-12-10T04:38:11;98033.81;;;4.10;99.95
21086;BME280;34247;50.064;19.970;2022-12-10T04:39:14;98017.31;;;4.08;99.67
21086;BME280;34247;50.064;19.970;2022-12-10T04:40:18;98028.28;;;4.14;99.70
21086;BME280;34247;50.064;19.970;2022-12-10T04:41:21;98025.28;;;4.06;99.62
21086;BME280;34247;50.064;19.970;2022-12-10T04:42:26;98027.06;;;4.06;100.00
21086;BME280;34247;50.064;19.970;2022-12-10T04:43:30;98025.94;;;4.10;100.00
21086;BME280;34247;50.064;19.970;2022-12-10T04:44:34;98023.22;;;4.11;100.00
21086;BME280;34247;50.064;19.970;2022-12-10T04:45:37;98027.50;;;4.12;100.00
21086;BME280;34247;50.064;19.970;2022-12-10T04:46:42;98026.41;;;4.17;100.00
21086;BME280;34247;50.064;19.970;2022-12-10T04:47:45;98033.22;;;4.19;99.83
21086;BME280;34247;50.064;19.970;2022-12-10T04:48:49;98035.78;;;4.21;99.83
21086;BME280;34247;50.064;19.970;2022-12-10T04:49:52;98040.94;;;4.22;99.44
21086;BME280;34247;50.064;19.970;2022-12-10T04:50:56;98038.69;;;4.16;99.56
21086;BME280;34247;50.064;19.970;2022-12-10T04:51:59;98035.22;;;4.15;99.75
21086;BME280;34247;50.064;19.970;2022-12-10T04:53:03;98044.59;;;4.20;99.46
21086;BME280;34247;50.064;19.970;2022-12-10T04:54:07;98042.91;;;4.19;99.79
21086;BME280;34247;50.064;19.970;2022-12-10T04:55:11;98047.22;;;4.20;99.93
21086;BME280;34247;50.064;19.970;2022-12-10T04:56:14;98043.66;;;4.21;99.86
21086;BME280;34247;50.064;19.970;2022-12-10T04:57:18;98049.94;;;4.18;100.00
21086;BME280;34247;50.064;19.970;2022-12-10T04:58:21;98054.19;;;4.21;99.81
21086;BME280;34247;50.064;19.970;2022-12-10T04:59:25;98055.19;;;4.18;100.00
21086;BME280;34247;50.064;19.970;2022-12-10T05:00:34;98055.50;;;4.13;99.93
21086;BME280;34247;50.064;19.970;2022-12-10T05:01:38;98056.41;;;4.12;100.00
21086;BME280;34247;50.064;19.970;2022-12-10T05:02:42;98060.91;;;4.10;100.00
21086;BME280;34247;50.064;19.970;2022-12-10T05:03:45;98052.88;;;4.13;100.00
21086;BME280;34247;50.064;19.970;2022-12-10T05:04:54;98055.09;;;4.05;100.00
21086;BME280;34247;50.064;19.970;2022-12-10T05:06:03;98048.94;;;4.06;100.00
21086;BME280;34247;50.064;19.970;2022-12-10T05:07:06;98052.75;;;4.01;100.00
21086;BME280;34247;50.064;19.970;2022-12-10T05:08:10;98050.88;;;4.03;100.00
21086;BME280;34247;50.064;19.970;2022-12-10T05:09:15;98052.41;;;4.07;100.00
21086;BME280;34247;50.064;19.970;2022-12-10T05:10:19;98053.13;;;4.09;100.00
21086;BME280;34247;50.064;19.970;2022-12-10T05:11:25;98054.81;;;4.10;100.00
21086;BME280;34247;50.064;19.970;2022-12-10T05:12:29;98054.44;;;4.16;100.00
21086;BME280;34247;50.064;19.970;2022-12-10T05:13:33;98053.72;;;4.14;100.00
21086;BME280;34247;50.064;19.970;2022-12-10T05:14:37;98053.50;;;4.17;100.00
21086;BME280;34247;50.064;19.970;2022-12-10T05:15:41;98054.53;;;4.14;100.00
21086;BME280;34247;50.064;19.970;2022-12-10T05:16:49;98046.56;;;4.16;99.93
21086;BME280;34247;50.064;19.970;2022-12-10T05:17:52;98052.66;;;4.17;99.96
21086;BME280;34247;50.064;19.970;2022-12-10T05:18:58;98055.09;;;4.20;100.00
21086;BME280;34247;50.064;19.970;2022-12-10T05:20:03;98058.66;;;4.19;99.83
21086;BME280;34247;50.064;19.970;2022-12-10T05:21:11;98058.59;;;4.20;100.00
21086;BME280;34247;50.064;19.970;2022-12-10T05:22:18;98066.91;;;4.12;99.69
21086;BME280;34247;50.064;19.970;2022-12-10T05:23:44;98068.69;;;4.12;100.00
21086;BME280;34247;50.064;19.970;2022-12-10T05:24:48;98073.78;;;4.15;100.00
21086;BME280;34247;50.064;19.970;2022-12-10T05:26:09;98079.78;;;4.17;100.00
21086;BME280;34247;50.064;19.970;2022-12-10T05:27:13;98080.59;;;4.18;100.00
21086;BME280;34247;50.064;19.970;2022-12-10T05:28:17;98082.28;;;4.19;100.00
21086;BME280;34247;50.064;19.970;2022-12-10T05:29:21;98089.63;;;4.13;100.00
21086;BME280;34247;50.064;19.970;2022-12-10T05:30:25;98086.91;;;4.15;100.00
21086;BME280;34247;50.064;19.970;2022-12-10T05:31:29;98094.69;;;4.17;100.00
21086;BME280;34247;50.064;19.970;2022-12-10T05:32:33;98095.41;;;4.19;100.00
21086;BME280;34247;50.064;19.970;2022-12-10T05:33:37;98101.81;;;4.14;100.00
21086;BME280;34247;50.064;19.970;2022-12-10T05:34:41;98102.66;;;4.15;100.00
21086;BME280;34247;50.064;19.970;2022-12-10T05:36:57;98114.09;;;4.14;99.87
21086;BME280;34247;50.064;19.970;2022-12-10T05:38:03;98116.81;;;4.12;100.00
21086;BME280;34247;50.064;19.970;2022-12-10T05:39:08;98116.72;;;4.14;100.00
21086;BME280;34247;50.064;19.970;2022-12-10T05:40:13;98116.63;;;4.15;100.00
21086;BME280;34247;50.064;19.970;2022-12-10T05:41:22;98113.06;;;4.17;99.97
21086;BME280;34247;50.064;19.970;2022-12-10T05:42:26;98115.69;;;4.17;99.79
21086;BME280;34247;50.064;19.970;2022-12-10T05:43:31;98114.75;;;4.18;99.51
21086;BME280;34247;50.064;19.970;2022-12-10T05:44:35;98125.25;;;4.18;99.55
21086;BME280;34247;50.064;19.970;2022-12-10T05:45:38;98112.97;;;4.18;99.67
21086;BME280;34247;50.064;19.970;2022-12-10T05:46:42;98117.38;;;4.18;99.51
21086;BME280;34247;50.064;19.970;2022-12-10T05:47:46;98110.25;;;4.20;99.32
21086;BME280;34247;50.064;19.970;2022-12-10T05:48:50;98105.94;;;4.19;99.51
21086;BME280;34247;50.064;19.970;2022-12-10T05:49:54;98112.88;;;4.20;99.53
21086;BME280;34247;50.064;19.970;2022-12-10T05:50:58;98109.34;;;4.21;99.51
21086;BME280;34247;50.064;19.970;2022-12-10T05:52:02;98111.00;;;4.22;99.39
21086;BME280;34247;50.064;19.970;2022-12-10T05:53:06;98118.91;;;4.22;99.52
21086;BME280;34247;50.064;19.970;2022-12-10T05:54:10;98121.41;;;4.23;99.62
21086;BME280;34247;50.064;19.970;2022-12-10T05:55:14;98120.56;;;4.23;99.33
21086;BME280;34247;50.064;19.970;2022-12-10T05:56:23;98123.38;;;4.20;99.29
21086;BME280;34247;50.064;19.970;2022-12-10T05:57:27;98115.50;;;4.20;99.27
21086;BME280;34247;50.064;19.970;2022-12-10T05:58:32;98111.13;;;4.20;98.94
21086;BME280;34247;50.064;19.970;2022-12-10T05:59:37;98106.88;;;4.18;99.63
21086;BME280;34247;50.064;19.970;2022-12-10T06:00:41;98104.25;;;4.18;99.17
21086;BME280;34247;50.064;19.970;2022-12-10T06:01:45;98086.91;;;4.15;99.50
21086;BME280;34247;50.064;19.970;2022-12-10T06:02:50;98091.94;;;4.18;99.45
21086;BME280;34247;50.064;19.970;2022-12-10T06:03:59;98086.69;;;4.18;99.63
21086;BME280;34247;50.064;19.970;2022-12-10T06:05:04;98084.84;;;4.20;99.42
21086;BME280;34247;50.064;19.970;2022-12-10T06:06:08;98073.56;;;4.18;99.46
21086;BME280;34247;50.064;19.970;2022-12-10T06:07:12;98072.16;;;4.12;99.82
21086;BME280;34247;50.064;19.970;2022-12-10T06:08:16;98075.47;;;4.16;100.00
21086;BME280;34247;50.064;19.970;2022-12-10T06:09:20;98075.19;;;4.21;99.93
21086;BME280;34247;50.064;19.970;2022-12-10T06:10:27;98086.69;;;4.18;99.62
21086;BME280;34247;50.064;19.970;2022-12-10T06:11:31;98101.03;;;4.12;99.59
21086;BME280;34247;50.064;19.970;2022-12-10T06:12:35;98092.31;;;4.12;99.68
21086;BME280;34247;50.064;19.970;2022-12-10T06:13:38;98099.09;;;4.16;99.46
21086;BME280;34247;50.064;19.970;2022-12-10T06:14:42;98092.91;;;4.17;99.60
21086;BME280;34247;50.064;19.970;2022-12-10T06:15:46;98096.56;;;4.14;100.00
21086;BME280;34247;50.064;19.970;2022-12-10T06:16:50;98096.75;;;4.11;99.86
21086;BME280;34247;50.064;19.970;2022-12-10T06:17:55;98093.38;;;4.09;99.97
21086;BME280;34247;50.064;19.970;2022-12-10T06:18:58;98087.47;;;4.06;100.00
21086;BME280;34247;50.064;19.970;2022-12-10T06:20:03;98087.00;;;4.13;100.00
21086;BME280;34247;50.064;19.970;2022-12-10T06:21:10;98087.28;;;4.09;100.00
21086;BME280;34247;50.064;19.970;2022-12-10T06:22:14;98079.66;;;4.04;100.00
21086;BME280;34247;50.064;19.970;2022-12-10T06:23:18;98083.97;;;4.05;100.00
21086;BME280;34247;50.064;19.970;2022-12-10T06:24:22;98084.53;;;4.10;100.00